Time;durP1;ratioP1;P1;durP2;ratioP2;P2;SDS_P1;SDS_P2;PMS_P1;PMS_P2;Temp;Humidity;BMP_temperature;BMP_pressure;BME280_temperature;BME280_humidity;BME280_pressure;Samples;Min_cycle;Max_cycle;Signal;HPM_P1;HPM_P2
2022/05/16 00:01:38;;;;;;;5.68;2.35;;;;;18.20;94189.00;;;;7393991;19;20150;-81
2022/05/16 00:04:06;;;;;;;3.97;2.25;;;;;18.00;94179.00;;;;7392820;19;20934;-84
2022/05/16 00:06:40;;;;;;;4.50;1.88;;;;;18.00;94186.00;;;;7393357;19;20137;-83
2022/05/16 00:09:21;;;;;;;6.63;1.92;;;;;17.90;94176.00;;;;7393329;19;20658;-80
2022/05/16 00:11:55;;;;;;;4.30;2.22;;;;;17.90;94183.00;;;;7394338;19;20570;-80
2022/05/16 00:14:23;;;;;;;3.00;1.90;;;;;17.70;94176.00;;;;7393817;19;20134;-84
2022/05/16 00:16:51;;;;;;;3.45;1.80;;;;;17.50;94169.00;;;;7393268;19;20149;-80
2022/05/16 00:19:26;;;;;;;6.75;2.13;;;;;17.40;94162.00;;;;7392820;19;20148;-80
2022/05/16 00:21:53;;;;;;;4.95;1.98;;;;;17.20;94169.00;;;;7394165;19;20631;-80
2022/05/16 00:24:26;;;;;;;3.58;2.20;;;;;17.00;94167.00;;;;7394847;19;20125;-79
2022/05/16 00:26:59;;;;;;;5.15;2.00;;;;;17.00;94160.00;;;;7392726;19;20603;-80
2022/05/16 00:29:27;;;;;;;3.22;1.88;;;;;17.00;94160.00;;;;7392613;19;20135;-80
2022/05/16 00:31:55;;;;;;;5.85;2.35;;;;;17.00;94160.00;;;;7394880;19;20156;-79
2022/05/16 00:34:29;;;;;;;4.22;2.00;;;;;17.00;94164.00;;;;7393031;19;20550;-81
2022/05/16 00:36:57;;;;;;;4.95;2.28;;;;;16.80;94161.00;;;;7392606;19;20152;-81
2022/05/16 00:39:25;;;;;;;5.28;1.90;;;;;16.90;94157.00;;;;7393581;19;20132;-81
2022/05/16 00:42:01;;;;;;;4.88;2.10;;;;;16.80;94157.00;;;;7392885;19;20917;-81
2022/05/16 00:44:29;;;;;;;4.47;2.20;;;;;16.70;94154.00;;;;7386260;19;20158;-81
2022/05/16 00:46:56;;;;;;;3.55;2.30;;;;;16.80;94154.00;;;;7391977;19;20164;-78
2022/05/16 00:49:34;;;;;;;2.35;2.15;;;;;16.70;94149.00;;;;7392471;19;20149;-80
2022/05/16 00:52:10;;;;;;;6.45;2.00;;;;;16.50;94146.00;;;;7391985;19;20165;-79
2022/05/16 00:54:49;;;;;;;4.18;2.15;;;;;16.50;94144.00;;;;7392406;19;20228;-79
2022/05/16 00:57:22;;;;;;;3.75;2.13;;;;;16.40;94148.00;;;;7392613;19;20137;-80
2022/05/16 01:00:16;;;;;;;6.18;2.42;;;;;16.30;94146.00;;;;7392928;19;20602;-79
2022/05/16 01:05:40;;;;;;;3.10;2.10;;;;;16.20;94141.00;;;;7392188;19;20200;-82
2022/05/16 01:08:27;;;;;;;2.25;2.05;;;;;16.50;94131.00;;;;7389623;19;20125;-79
2022/05/16 01:11:13;;;;;;;4.50;2.30;;;;;16.30;94140.00;;;;7391409;19;20200;-79
2022/05/16 01:13:41;;;;;;;4.07;2.25;;;;;16.40;94142.00;;;;7395245;19;20152;-77
2022/05/16 01:16:15;;;;;;;2.78;2.15;;;;;16.40;94148.00;;;;7390986;19;20147;-81
2022/05/16 01:18:43;;;;;;;3.08;2.30;;;;;16.60;94140.00;;;;7391930;19;20211;-78
2022/05/16 01:21:26;;;;;;;5.93;2.60;;;;;16.60;94141.00;;;;7389620;19;20128;-79
2022/05/16 01:24:30;;;;;;;4.97;2.47;;;;;16.70;94131.00;;;;7391556;19;20591;-81
2022/05/16 01:26:57;;;;;;;4.57;2.50;;;;;16.70;94135.00;;;;7391002;19;20679;-80
2022/05/16 01:29:31;;;;;;;4.03;2.47;;;;;16.80;94136.00;;;;7390999;19;20140;-80
2022/05/16 01:31:59;;;;;;;3.15;2.42;;;;;16.90;94127.00;;;;7390537;19;20141;-81
2022/05/16 01:34:26;;;;;;;4.72;2.40;;;;;17.30;94127.00;;;;7389897;19;20717;-79
2022/05/16 01:37:00;;;;;;;4.65;3.05;;;;;17.60;94135.00;;;;7391595;19;20148;-79
2022/05/16 01:39:28;;;;;;;6.30;2.70;;;;;17.70;94116.00;;;;7391589;19;20117;-80
2022/05/16 01:41:56;;;;;;;5.68;2.80;;;;;17.50;94108.00;;;;7390437;19;20156;-81
2022/05/16 01:44:29;;;;;;;4.13;2.65;;;;;17.70;94120.00;;;;7390562;19;20151;-83
2022/05/16 01:46:57;;;;;;;5.00;2.75;;;;;17.70;94121.00;;;;7391801;19;20599;-79
2022/05/16 01:49:25;;;;;;;6.82;3.10;;;;;18.00;94117.00;;;;7390355;19;20140;-81
2022/05/16 01:51:59;;;;;;;5.03;2.67;;;;;17.80;94120.00;;;;7390027;19;20162;-81
2022/05/16 01:54:27;;;;;;;6.43;2.67;;;;;17.90;94123.00;;;;7389770;19;20148;-79
2022/05/16 01:56:54;;;;;;;4.10;2.75;;;;;17.90;94112.00;;;;7391197;19;20140;-82
2022/05/16 01:59:28;;;;;;;5.68;2.85;;;;;17.80;94118.00;;;;7390154;19;20502;-82
2022/05/16 02:01:56;;;;;;;3.33;3.03;;;;;17.70;94104.00;;;;7391067;19;20124;-81
2022/05/16 02:04:24;;;;;;;6.50;2.70;;;;;17.60;94109.00;;;;7390060;19;20587;-81
2022/05/16 02:06:58;;;;;;;9.05;3.25;;;;;17.70;94095.00;;;;7392287;19;20125;-84
2022/05/16 02:09:40;;;;;;;8.88;2.88;;;;;17.70;94102.00;;;;7388566;19;20549;-79
2022/05/16 02:12:14;;;;;;;5.07;2.88;;;;;17.60;94104.00;;;;7391210;19;20153;-81
2022/05/16 02:14:42;;;;;;;3.75;2.70;;;;;17.80;94096.00;;;;7397226;19;20132;-79
2022/05/16 02:17:10;;;;;;;6.15;3.25;;;;;18.00;94102.00;;;;7397323;19;20145;-80
2022/05/16 02:19:44;;;;;;;5.32;3.22;;;;;17.90;94101.00;;;;7397779;19;20136;-79
2022/05/16 02:25:06;;;;;;;4.53;3.10;;;;;18.10;94095.00;;;;7397609;19;20137;-79
2022/05/16 02:27:36;;;;;;;6.60;3.00;;;;;18.00;94102.00;;;;7397000;19;20129;-80
2022/05/16 02:30:06;;;;;;;4.65;2.95;;;;;18.10;94089.00;;;;7398570;19;20136;-80
2022/05/16 02:32:41;;;;;;;3.30;2.80;;;;;18.30;94099.00;;;;7397268;19;20148;-80
2022/05/16 02:35:10;;;;;;;3.70;2.90;;;;;18.20;94096.00;;;;7398000;19;20156;-78
2022/05/16 02:37:38;;;;;;;5.28;2.78;;;;;18.30;94102.00;;;;7396299;19;20192;-81
2022/05/16 02:40:12;;;;;;;5.03;2.70;;;;;18.50;94104.00;;;;7396849;19;20470;-78
2022/05/16 02:42:39;;;;;;;5.28;3.10;;;;;18.60;94099.00;;;;7396813;19;20137;-78
2022/05/16 02:45:08;;;;;;;5.22;3.10;;;;;18.60;94098.00;;;;7397435;19;20204;-78
2022/05/16 02:47:43;;;;;;;4.80;3.10;;;;;18.70;94107.00;;;;7396669;19;20653;-78
2022/05/16 02:50:14;;;;;;;5.03;2.80;;;;;18.80;94106.00;;;;7396185;19;20137;-77
2022/05/16 02:52:41;;;;;;;6.63;3.28;;;;;18.90;94097.00;;;;7395440;19;20160;-77
2022/05/16 02:55:15;;;;;;;3.40;2.67;;;;;19.00;94095.00;;;;7396463;19;20125;-77
2022/05/16 02:57:43;;;;;;;4.35;2.80;;;;;19.20;94095.00;;;;7396084;19;20152;-77
2022/05/16 03:00:13;;;;;;;6.30;2.75;;;;;19.10;94099.00;;;;7394774;19;20151;-77
2022/05/16 03:02:47;;;;;;;6.95;3.00;;;;;19.40;94099.00;;;;7395437;19;20148;-76
2022/05/16 03:05:15;;;;;;;4.90;2.67;;;;;19.40;94105.00;;;;7395620;19;20137;-79
2022/05/16 03:07:45;;;;;;;8.35;3.25;;;;;19.30;94103.00;;;;7397034;19;20145;-79
2022/05/16 03:10:26;;;;;;;6.15;2.95;;;;;19.50;94103.00;;;;7392803;19;20168;-77
2022/05/16 03:12:54;;;;;;;5.25;2.67;;;;;19.40;94117.00;;;;7394914;19;20591;-78
2022/05/16 03:15:30;;;;;;;6.78;2.78;;;;;19.40;94113.00;;;;7395221;19;20141;-77
2022/05/16 03:17:58;;;;;;;6.97;2.67;;;;;19.30;94112.00;;;;7395808;19;20135;-76
2022/05/16 03:20:25;;;;;;;6.28;2.70;;;;;19.20;94118.00;;;;7394382;19;20196;-77
2022/05/16 03:22:59;;;;;;;5.93;2.65;;;;;19.10;94114.00;;;;7394390;19;20140;-76
2022/05/16 03:25:27;;;;;;;5.63;2.75;;;;;19.10;94117.00;;;;7392579;19;20157;-77
2022/05/16 03:27:54;;;;;;;6.68;2.63;;;;;19.40;94118.00;;;;7397204;19;20125;-76
2022/05/16 03:30:28;;;;;;;3.92;2.80;;;;;19.10;94126.00;;;;7395340;19;20129;-76
2022/05/16 03:32:56;;;;;;;6.38;2.95;;;;;19.10;94125.00;;;;7395515;19;20141;-77
2022/05/16 03:35:24;;;;;;;8.25;2.63;;;;;18.90;94124.00;;;;7395792;19;20137;-76
2022/05/16 03:37:58;;;;;;;7.65;2.83;;;;;18.70;94134.00;;;;7395078;19;20595;-78
2022/05/16 03:40:45;;;;;;;3.72;2.30;;;;;18.60;94136.00;;;;7394713;19;20164;-76
2022/05/16 03:43:19;;;;;;;6.80;2.75;;;;;18.30;94144.00;;;;7395147;19;20140;-76
2022/05/16 03:45:47;;;;;;;5.57;2.65;;;;;18.50;94150.00;;;;7394152;19;20142;-76
2022/05/16 03:48:15;;;;;;;7.60;3.22;;;;;18.40;94158.00;;;;7394201;19;20147;-76
2022/05/16 03:50:48;;;;;;;8.75;2.70;;;;;18.40;94160.00;;;;7394745;19;20129;-76
2022/05/16 03:53:16;;;;;;;7.57;3.28;;;;;18.10;94161.00;;;;7394849;19;20142;-76
2022/05/16 03:55:43;;;;;;;8.90;3.17;;;;;17.90;94168.00;;;;7393639;19;20148;-76
2022/05/16 03:58:17;;;;;;;4.90;2.83;;;;;17.80;94165.00;;;;7393870;19;20137;-76
2022/05/16 04:00:46;;;;;;;9.38;3.17;;;;;17.70;94167.00;;;;7394438;19;20133;-79
2022/05/16 04:03:14;;;;;;;6.53;3.20;;;;;17.70;94168.00;;;;7394592;19;20243;-77
2022/05/16 04:05:50;;;;;;;7.10;2.85;;;;;17.60;94177.00;;;;7390969;19;20170;-77
2022/05/16 04:08:25;;;;;;;6.80;3.03;;;;;17.40;94171.00;;;;7393117;19;20204;-76
2022/05/16 04:11:06;;;;;;;7.90;3.50;;;;;17.40;94171.00;;;;7393158;19;20497;-77
2022/05/16 04:13:35;;;;;;;4.25;2.55;;;;;17.30;94169.00;;;;7393440;19;20144;-77
2022/05/16 04:16:09;;;;;;;9.43;3.17;;;;;17.50;94172.00;;;;7394024;19;20627;-76
2022/05/16 04:18:36;;;;;;;7.90;3.40;;;;;17.60;94180.00;;;;7393183;19;20131;-76
2022/05/16 04:21:05;;;;;;;6.05;2.95;;;;;17.70;94172.00;;;;7392107;19;20469;-77
2022/05/16 04:23:38;;;;;;;3.88;2.72;;;;;17.80;94169.00;;;;7393189;19;20144;-77
2022/05/16 04:26:06;;;;;;;6.35;3.03;;;;;18.00;94173.00;;;;7394564;19;20494;-77
2022/05/16 04:28:34;;;;;;;9.70;3.63;;;;;18.00;94170.00;;;;7393914;19;20493;-77
2022/05/16 04:31:08;;;;;;;5.05;2.85;;;;;18.00;94169.00;;;;7393320;19;20140;-78
2022/05/16 04:33:35;;;;;;;9.48;3.20;;;;;18.00;94166.00;;;;7392276;19;20176;-77
2022/05/16 04:36:03;;;;;;;5.43;3.60;;;;;18.00;94169.00;;;;7393651;19;20595;-76
2022/05/16 04:38:36;;;;;;;5.70;2.83;;;;;17.90;94162.00;;;;7394472;19;20604;-76
2022/05/16 04:43:56;;;;;;;8.07;3.40;;;;;17.90;94173.00;;;;7392723;19;20580;-76
2022/05/16 04:46:24;;;;;;;4.88;3.40;;;;;17.90;94162.00;;;;7393998;19;20145;-77
2022/05/16 04:48:52;;;;;;;7.78;3.38;;;;;18.00;94163.00;;;;7392725;19;20137;-77
2022/05/16 04:51:26;;;;;;;8.98;3.35;;;;;18.20;94160.00;;;;7392815;19;20137;-77
2022/05/16 04:53:53;;;;;;;5.60;3.25;;;;;18.40;94166.00;;;;7392369;19;20148;-77
2022/05/16 04:56:22;;;;;;;6.05;3.45;;;;;18.20;94164.00;;;;7391753;19;20208;-78
2022/05/16 04:58:56;;;;;;;7.38;3.17;;;;;18.10;94170.00;;;;7392064;19;20610;-78
2022/05/16 05:01:25;;;;;;;7.57;3.33;;;;;18.10;94165.00;;;;7391495;19;20639;-77
2022/05/16 05:03:53;;;;;;;8.57;3.80;;;;;18.20;94165.00;;;;7392047;19;20660;-77
2022/05/16 05:06:28;;;;;;;5.20;3.13;;;;;18.30;94165.00;;;;7384489;19;20148;-78
2022/05/16 05:09:02;;;;;;;5.80;3.17;;;;;18.30;94166.00;;;;7389397;19;20157;-77
2022/05/16 05:14:35;;;;;;;8.63;3.45;;;;;18.30;94172.00;;;;7393072;19;20198;-77
2022/05/16 05:17:11;;;;;;;4.18;3.00;;;;;18.30;94179.00;;;;7394107;19;20148;-77
2022/05/16 05:19:40;;;;;;;6.25;3.60;;;;;18.40;94184.00;;;;7395188;19;20233;-77
2022/05/16 05:22:08;;;;;;;5.28;3.30;;;;;18.40;94193.00;;;;7391040;19;20153;-77
2022/05/16 05:24:43;;;;;;;5.53;3.65;;;;;18.60;94191.00;;;;7392474;19;20146;-77
2022/05/16 05:27:11;;;;;;;4.20;3.20;;;;;18.70;94201.00;;;;7392710;19;20133;-77
2022/05/16 05:29:39;;;;;;;5.55;3.13;;;;;18.80;94202.00;;;;7390434;19;20133;-77
2022/05/16 05:32:15;;;;;;;5.68;3.58;;;;;18.80;94198.00;;;;7391690;19;20136;-77
2022/05/16 05:34:44;;;;;;;5.93;3.45;;;;;18.80;94203.00;;;;7392137;19;20168;-78
2022/05/16 05:37:15;;;;;;;6.40;4.07;;;;;18.90;94206.00;;;;7394152;19;20141;-78
2022/05/16 05:39:49;;;;;;;7.53;3.72;;;;;18.90;94205.00;;;;7391975;19;20482;-80
2022/05/16 05:42:16;;;;;;;8.45;3.53;;;;;19.10;94210.00;;;;7392067;19;20148;-78
2022/05/16 05:44:44;;;;;;;5.57;4.10;;;;;19.20;94211.00;;;;7393478;19;20129;-78
2022/05/16 05:47:17;;;;;;;6.35;3.50;;;;;19.30;94210.00;;;;7395420;19;20132;-78
2022/05/16 05:49:45;;;;;;;5.47;3.35;;;;;19.40;94212.00;;;;7402132;19;20657;-77
2022/05/16 05:52:15;;;;;;;6.70;3.60;;;;;19.40;94212.00;;;;7399046;19;20495;-78
2022/05/16 05:54:49;;;;;;;5.80;3.30;;;;;19.40;94213.00;;;;7400437;19;20129;-78
2022/05/16 05:57:17;;;;;;;4.35;3.15;;;;;19.50;94208.00;;;;7400396;19;20133;-77
2022/05/16 05:59:45;;;;;;;6.85;3.28;;;;;19.50;94213.00;;;;7399807;19;20152;-77
2022/05/16 06:02:20;;;;;;;4.95;3.25;;;;;19.50;94217.00;;;;7397662;19;20953;-76
2022/05/16 06:04:48;;;;;;;7.00;3.22;;;;;19.40;94221.00;;;;7399756;19;20133;-78
2022/05/16 06:07:16;;;;;;;5.40;3.28;;;;;19.50;94221.00;;;;7397260;19;20144;-77
2022/05/16 06:09:56;;;;;;;5.15;3.13;;;;;19.60;94227.00;;;;7398372;19;20187;-79
2022/05/16 06:12:35;;;;;;;6.07;3.05;;;;;19.70;94226.00;;;;7397985;19;20148;-76
2022/05/16 06:15:10;;;;;;;7.25;3.10;;;;;19.60;94229.00;;;;7399529;19;20151;-78
2022/05/16 06:17:39;;;;;;;6.65;3.65;;;;;19.90;94230.00;;;;7400849;19;20158;-79
2022/05/16 06:20:08;;;;;;;5.78;3.20;;;;;20.00;94233.00;;;;7397147;19;20143;-80
2022/05/16 06:22:43;;;;;;;5.57;2.70;;;;;20.30;94237.00;;;;7395913;19;20124;-83
2022/05/16 06:28:14;;;;;;;5.43;3.00;;;;;20.20;94234.00;;;;7397430;19;20611;-79
2022/05/16 06:30:46;;;;;;;4.80;3.28;;;;;20.20;94233.00;;;;7398156;19;20143;-80
2022/05/16 06:33:22;;;;;;;3.03;2.70;;;;;20.00;94239.00;;;;7397920;19;20175;-82
2022/05/16 06:35:50;;;;;;;5.60;2.90;;;;;20.10;94243.00;;;;7399289;19;20164;-79
2022/05/16 06:38:31;;;;;;;5.63;3.35;;;;;20.30;94248.00;;;;7397446;19;20113;-80
2022/05/16 06:41:06;;;;;;;4.25;3.20;;;;;20.20;94244.00;;;;7398553;19;20483;-81
2022/05/16 06:43:34;;;;;;;4.30;2.88;;;;;20.30;94252.00;;;;7398784;19;20494;-79
2022/05/16 06:46:03;;;;;;;7.45;3.40;;;;;20.40;94253.00;;;;7400154;19;20141;-80
2022/05/16 06:48:37;;;;;;;9.48;3.15;;;;;20.50;94245.00;;;;7398472;19;20137;-80
2022/05/16 06:51:04;;;;;;;5.10;3.40;;;;;20.70;94254.00;;;;7398657;19;20148;-84
2022/05/16 06:53:33;;;;;;;7.35;3.58;;;;;20.80;94256.00;;;;7399264;19;20140;-79
2022/05/16 06:56:07;;;;;;;4.97;3.00;;;;;20.60;94262.00;;;;7397610;19;20144;-79
2022/05/16 06:58:35;;;;;;;6.07;3.95;;;;;20.80;94259.00;;;;7396037;19;20145;-79
2022/05/16 07:01:03;;;;;;;4.38;3.00;;;;;21.00;94253.00;;;;7398256;19;20148;-79
2022/05/16 07:03:40;;;;;;;6.60;3.58;;;;;20.90;94255.00;;;;7398940;19;20128;-80
2022/05/16 07:06:07;;;;;;;4.45;3.60;;;;;20.90;94259.00;;;;7393824;19;20155;-81
2022/05/16 07:08:35;;;;;;;4.78;3.42;;;;;21.10;94267.00;;;;7397074;19;20129;-79
2022/05/16 07:11:17;;;;;;;4.35;3.35;;;;;21.20;94267.00;;;;7398446;19;20133;-79
2022/05/16 07:13:45;;;;;;;7.68;4.03;;;;;21.30;94271.00;;;;7397955;19;20207;-80
2022/05/16 07:16:19;;;;;;;6.97;3.38;;;;;21.70;94276.00;;;;7395694;19;20153;-79
2022/05/16 07:18:46;;;;;;;5.00;3.35;;;;;21.90;94263.00;;;;7397731;19;20129;-80
2022/05/16 07:21:14;;;;;;;5.53;3.30;;;;;21.80;94268.00;;;;7397510;19;20145;-79
2022/05/16 07:23:49;;;;;;;6.10;3.70;;;;;22.00;94273.00;;;;7398678;19;20511;-79
2022/05/16 07:29:09;;;;;;;5.85;3.50;;;;;22.40;94268.00;;;;7399370;19;20129;-79
2022/05/16 07:31:37;;;;;;;6.22;3.40;;;;;22.50;94272.00;;;;7397187;19;20153;-79
2022/05/16 07:34:04;;;;;;;5.28;3.67;;;;;22.80;94271.00;;;;7393440;19;20176;-78
2022/05/16 07:36:39;;;;;;;7.20;3.33;;;;;22.90;94269.00;;;;7396280;19;20133;-79
2022/05/16 07:39:06;;;;;;;5.30;3.15;;;;;22.70;94283.00;;;;7396879;19;20126;-80
2022/05/16 07:41:34;;;;;;;3.75;3.20;;;;;22.30;94286.00;;;;7396178;19;20502;-81
2022/05/16 07:44:08;;;;;;;4.65;3.40;;;;;22.50;94283.00;;;;7394399;19;20168;-81
2022/05/16 07:46:35;;;;;;;7.43;3.45;;;;;22.60;94298.00;;;;7396163;19;20168;-78
2022/05/16 07:49:03;;;;;;;7.40;3.70;;;;;22.80;94300.00;;;;7396837;19;20623;-79
2022/05/16 07:51:36;;;;;;;6.03;3.35;;;;;22.80;94301.00;;;;7397226;19;20141;-80
2022/05/16 07:54:04;;;;;;;7.40;3.50;;;;;22.80;94306.00;;;;7394649;19;20129;-79
2022/05/16 07:56:33;;;;;;;6.50;3.35;;;;;23.00;94309.00;;;;7394197;19;20148;-80
2022/05/16 07:59:09;;;;;;;7.88;3.47;;;;;22.80;94311.00;;;;7396093;19;20631;-84
2022/05/16 08:01:38;;;;;;;10.13;3.65;;;;;22.60;94307.00;;;;7398853;19;20608;-83
2022/05/16 08:04:06;;;;;;;6.32;3.40;;;;;22.40;94308.00;;;;7393374;19;20139;-79
2022/05/16 08:06:41;;;;;;;10.75;3.80;;;;;22.50;94326.00;;;;7392160;19;20204;-79
2022/05/16 08:12:28;;;;;;;9.57;4.05;;;;;22.50;94331.00;;;;7395232;19;20140;-79
2022/05/16 08:14:56;;;;;;;6.38;3.70;;;;;22.50;94330.00;;;;7394173;19;20172;-79
2022/05/16 08:17:31;;;;;;;9.35;3.72;;;;;22.30;94335.00;;;;7395744;19;20148;-79
2022/05/16 08:19:59;;;;;;;6.75;3.40;;;;;22.40;94338.00;;;;7396498;19;20626;-78
2022/05/16 08:22:29;;;;;;;8.63;3.70;;;;;22.20;94338.00;;;;7392903;19;20137;-80
2022/05/16 08:25:03;;;;;;;6.22;3.80;;;;;22.10;94345.00;;;;7394859;19;20162;-79
2022/05/16 08:27:39;;;;;;;7.00;3.53;;;;;22.20;94352.00;;;;7397047;19;20152;-79
2022/05/16 08:30:13;;;;;;;6.70;3.72;;;;;22.20;94345.00;;;;7393640;19;20124;-76
2022/05/16 08:32:40;;;;;;;5.63;3.30;;;;;22.40;94343.00;;;;7394264;19;20485;-81
2022/05/16 08:35:11;;;;;;;7.30;3.42;;;;;22.40;94346.00;;;;7390047;19;20199;-80
2022/05/16 08:41:04;;;;;;;6.65;3.70;;;;;22.70;94348.00;;;;7395085;19;20133;-78
2022/05/16 08:43:50;;;;;;;7.93;3.95;;;;;22.90;94350.00;;;;7393827;19;20148;-82
2022/05/16 08:46:26;;;;;;;11.55;3.55;;;;;22.30;94345.00;;;;7392548;19;20219;-76
2022/05/16 08:49:24;;;;;;;6.35;3.80;;;;;22.70;94353.00;;;;7393849;19;20142;-78
2022/05/16 08:52:03;;;;;;;7.43;3.55;;;;;22.70;94364.00;;;;7395285;19;20136;-78
2022/05/16 08:54:51;;;;;;;6.10;3.38;;;;;22.50;94366.00;;;;7392426;19;20121;-79
2022/05/16 08:57:30;;;;;;;6.28;3.70;;;;;22.80;94366.00;;;;7395956;19;20614;-79
2022/05/16 09:00:47;;;;;;;7.18;3.80;;;;;23.00;94377.00;;;;7392944;19;20144;-80
2022/05/16 09:03:44;;;;;;;6.63;3.58;;;;;22.90;94376.00;;;;7392342;19;20145;-78
2022/05/16 09:06:31;;;;;;;9.30;4.03;;;;;22.70;94375.00;;;;7389230;19;20129;-81
2022/05/16 09:09:12;;;;;;;6.20;3.58;;;;;22.60;94367.00;;;;7391511;19;20627;-81
2022/05/16 09:11:59;;;;;;;6.47;3.58;;;;;23.10;94378.00;;;;7394753;19;20592;-81
2022/05/16 09:15:08;;;;;;;5.60;3.47;;;;;23.10;94378.00;;;;7393297;19;20187;-77
2022/05/16 09:17:51;;;;;;;5.05;3.90;;;;;24.30;94370.00;;;;7393150;19;20503;-81
2022/05/16 09:20:27;;;;;;;8.57;3.65;;;;;24.80;94365.00;;;;7392030;19;20224;-80
2022/05/16 09:23:20;;;;;;;7.55;3.70;;;;;24.70;94371.00;;;;7391972;19;20144;-80
2022/05/16 09:26:13;;;;;;;5.55;3.45;;;;;24.20;94378.00;;;;7394634;19;20153;-79
2022/05/16 09:28:56;;;;;;;10.02;3.30;;;;;23.50;94391.00;;;;7393115;19;20133;-80
2022/05/16 09:31:30;;;;;;;10.95;3.20;;;;;22.90;94378.00;;;;7394519;19;20143;-79
2022/05/16 09:34:05;;;;;;;14.35;3.92;;;;;24.10;94391.00;;;;7392912;19;20538;-78
2022/05/16 09:36:35;;;;;;;8.55;3.95;;;;;24.10;94403.00;;;;7391458;19;20149;-81
2022/05/16 09:39:04;;;;;;;10.60;4.22;;;;;23.40;94403.00;;;;7392832;19;20646;-80
2022/05/16 09:41:59;;;;;;;32.50;4.75;;;;;23.30;94404.00;;;;7394403;19;20128;-83
2022/05/16 09:44:55;;;;;;;14.75;3.17;;;;;22.90;94413.00;;;;7390870;19;20124;-78
2022/05/16 09:47:29;;;;;;;8.23;3.10;;;;;23.20;94414.00;;;;7393214;19;20168;-80
2022/05/16 09:50:20;;;;;;;8.00;3.30;;;;;23.40;94417.00;;;;7390165;19;20148;-78
2022/05/16 09:53:05;;;;;;;6.60;3.10;;;;;23.60;94408.00;;;;7391405;19;20133;-78
2022/05/16 09:55:40;;;;;;;20.40;3.28;;;;;23.10;94414.00;;;;7392389;19;20590;-78
2022/05/16 09:58:17;;;;;;;5.07;2.88;;;;;22.60;94418.00;;;;7390057;19;20144;-78
2022/05/16 10:01:00;;;;;;;5.35;2.72;;;;;22.70;94409.00;;;;7391594;19;20144;-79
2022/05/16 10:03:41;;;;;;;20.02;5.07;;;;;22.60;94405.00;;;;7391878;19;20152;-80
2022/05/16 10:06:27;;;;;;;6.53;2.63;;;;;22.20;94406.00;;;;7389852;19;20117;-81
2022/05/16 10:09:20;;;;;;;7.32;2.92;;;;;22.80;94416.00;;;;7391801;19;20730;-81
2022/05/16 10:11:54;;;;;;;10.63;3.10;;;;;22.40;94417.00;;;;7393420;19;20598;-81
2022/05/16 10:14:29;;;;;;;6.45;3.17;;;;;22.00;94418.00;;;;7391190;19;20595;-79
2022/05/16 10:16:57;;;;;;;6.53;2.72;;;;;22.20;94427.00;;;;7391645;19;20158;-78
2022/05/16 10:19:27;;;;;;;5.43;2.65;;;;;22.40;94420.00;;;;7390678;19;20141;-81
2022/05/16 10:22:05;;;;;;;9.93;3.15;;;;;22.30;94437.00;;;;7392524;19;20493;-84
2022/05/16 10:24:37;;;;;;;6.93;3.15;;;;;22.40;94432.00;;;;7389170;19;20160;-85
2022/05/16 10:27:13;;;;;;;5.22;3.05;;;;;22.40;94437.00;;;;7391324;19;20173;-80
2022/05/16 10:29:48;;;;;;;6.20;2.63;;;;;22.60;94418.00;;;;7392516;19;20141;-79
2022/05/16 10:35:34;;;;;;;13.02;3.35;;;;;22.60;94432.00;;;;7398610;19;20144;-79
2022/05/16 10:38:31;;;;;;;10.98;2.08;;;;;23.30;94460.00;;;;7395993;19;20467;-79
2022/05/16 10:41:01;;;;;;;7.00;2.50;;;;;22.40;94450.00;;;;7398323;19;20476;-77
2022/05/16 10:43:56;;;;;;;9.75;2.42;;;;;21.40;94459.00;;;;7396879;19;20157;-80
2022/05/16 10:46:29;;;;;;;5.38;1.90;;;;;21.30;94444.00;;;;7396637;19;20124;-82
2022/05/16 10:49:11;;;;;;;3.30;1.60;;;;;20.90;94439.00;;;;7398267;19;20125;-81
2022/05/16 10:51:55;;;;;;;3.42;1.90;;;;;21.10;94441.00;;;;7399018;19;20144;-78
2022/05/16 10:54:31;;;;;;;5.13;2.03;;;;;20.90;94446.00;;;;7397004;19;20148;-80
2022/05/16 10:57:14;;;;;;;13.50;1.95;;;;;20.70;94447.00;;;;7397790;19;20615;-78
2022/05/16 11:00:06;;;;;;;4.78;1.70;;;;;20.50;94454.00;;;;7401190;19;20143;-79
2022/05/16 11:02:50;;;;;;;3.03;1.50;;;;;19.80;94447.00;;;;7396607;19;20145;-77
2022/05/16 11:05:38;;;;;;;3.42;1.70;;;;;19.80;94457.00;;;;7397585;19;20141;-80
2022/05/16 11:08:45;;;;;;;6.03;2.10;;;;;19.60;94465.00;;;;7397568;19;20551;-78
2022/05/16 11:11:42;;;;;;;5.43;1.65;;;;;19.50;94469.00;;;;7395771;19;20172;-78
2022/05/16 11:14:26;;;;;;;4.22;1.70;;;;;19.40;94465.00;;;;7395675;19;20213;-79
2022/05/16 11:17:23;;;;;;;3.10;1.92;;;;;19.10;94468.00;;;;7399383;19;20598;-78
2022/05/16 11:20:00;;;;;;;4.68;1.90;;;;;18.90;94468.00;;;;7398622;19;20554;-83
2022/05/16 11:23:09;;;;;;;4.30;1.63;;;;;18.70;94476.00;;;;7397229;19;20144;-81
2022/05/16 11:25:49;;;;;;;2.28;1.38;;;;;18.40;94472.00;;;;7395355;19;20614;-85
2022/05/16 11:29:16;;;;;;;13.40;2.00;;;;;17.80;94487.00;;;;7400950;19;20478;-79
2022/05/16 11:31:36;;;;;;;4.43;1.77;;;;;17.10;94509.00;;;;7397249;19;20629;-81
2022/05/16 11:34:40;;;;;;;3.17;1.55;;;;;15.70;94512.00;;;;7398684;19;20169;-80
2022/05/16 11:37:42;;;;;;;4.63;1.88;;;;;15.30;94505.00;;;;7403020;19;20156;-80
2022/05/16 11:40:39;;;;;;;3.95;2.00;;;;;15.30;94502.00;;;;7419519;19;20212;-81
2022/05/16 11:43:16;;;;;;;5.07;2.20;;;;;15.80;94488.00;;;;7399942;19;20141;-80
2022/05/16 11:46:23;;;;;;;3.75;2.03;;;;;16.20;94492.00;;;;7408218;19;20698;-78
2022/05/16 11:49:11;;;;;;;5.40;1.90;;;;;16.40;94489.00;;;;7396237;19;20149;-78
2022/05/16 11:52:40;;;;;;;5.15;2.30;;;;;16.40;94480.00;;;;7394524;19;20178;-80
2022/05/16 12:01:00;;;;;;;7.43;2.20;;;;;16.60;94484.00;;;;7396882;19;20590;-87
2022/05/16 12:03:42;;;;;;;4.63;2.05;;;;;16.40;94469.00;;;;7395041;19;20163;-83
2022/05/16 12:06:26;;;;;;;4.65;2.35;;;;;16.60;94475.00;;;;7391513;19;20121;-79
2022/05/16 12:09:30;;;;;;;4.95;2.22;;;;;16.30;94467.00;;;;7396070;19;20156;-81
2022/05/16 12:12:48;;;;;;;4.20;2.35;;;;;16.10;94463.00;;;;7393117;19;20152;-80
2022/05/16 12:15:29;;;;;;;7.00;2.40;;;;;16.30;94453.00;;;;7395559;19;20163;-78
2022/05/16 12:18:28;;;;;;;5.75;2.30;;;;;17.10;94440.00;;;;7393603;19;20168;-82
2022/05/16 12:21:12;;;;;;;3.35;2.40;;;;;17.80;94441.00;;;;7395546;19;20144;-79
2022/05/16 12:23:52;;;;;;;4.30;2.35;;;;;18.40;94446.00;;;;7395983;19;20128;-83
2022/05/16 12:26:27;;;;;;;5.63;2.53;;;;;18.40;94438.00;;;;7393528;19;20696;-82
2022/05/16 12:29:10;;;;;;;5.20;1.88;;;;;18.80;94428.00;;;;7395696;19;20592;-84
2022/05/16 12:31:50;;;;;;;5.07;2.20;;;;;19.30;94444.00;;;;7393919;19;20141;-84
2022/05/16 12:34:43;;;;;;;6.60;2.38;;;;;19.30;94439.00;;;;7392861;19;20635;-81
2022/05/16 12:37:19;;;;;;;5.30;1.90;;;;;19.30;94433.00;;;;7396215;19;20160;-81
2022/05/16 12:40:10;;;;;;;4.32;1.80;;;;;19.10;94425.00;;;;7396661;19;20168;-86
2022/05/16 12:42:54;;;;;;;5.65;1.95;;;;;19.10;94444.00;;;;7395305;19;20484;-82
2022/05/16 12:45:43;;;;;;;11.85;2.22;;;;;19.10;94438.00;;;;7390434;19;20634;-78
2022/05/16 12:48:46;;;;;;;4.35;2.33;;;;;19.30;94439.00;;;;7391383;19;20129;-85
2022/05/16 12:51:51;;;;;;;5.95;2.40;;;;;19.30;94445.00;;;;7396450;19;20492;-84
2022/05/16 12:55:02;;;;;;;6.85;2.00;;;;;19.60;94449.00;;;;7394170;19;20141;-86
2022/05/16 12:57:51;;;;;;;4.18;2.10;;;;;19.70;94447.00;;;;7394316;19;20144;-91
2022/05/16 13:01:01;;;;;;;6.80;2.92;;;;;19.80;94436.00;;;;7393415;19;20155;-83
2022/05/16 13:03:29;;;;;;;5.15;2.15;;;;;20.10;94441.00;;;;7391221;19;20205;-83
2022/05/16 13:06:08;;;;;;;5.72;2.30;;;;;20.30;94448.00;;;;7391644;19;20159;-83
2022/05/16 13:08:57;;;;;;;2.40;1.80;;;;;20.10;94435.00;;;;7393637;19;20129;-84
2022/05/16 13:12:12;;;;;;;3.90;2.25;;;;;20.10;94449.00;;;;7390038;19;20172;-87
2022/05/16 13:14:45;;;;;;;5.20;2.00;;;;;20.60;94445.00;;;;7390928;19;20129;-84
2022/05/16 13:17:36;;;;;;;4.97;2.22;;;;;20.20;94433.00;;;;7393683;19;20172;-87
2022/05/16 13:20:16;;;;;;;4.72;2.63;;;;;20.30;94429.00;;;;7391552;19;20143;-82
2022/05/16 13:22:53;;;;;;;6.88;2.40;;;;;20.50;94421.00;;;;7391711;19;20141;-85
2022/05/16 13:25:23;;;;;;;6.55;2.20;;;;;20.80;94435.00;;;;7392650;19;20156;-90
2022/05/16 13:30:55;;;;;;;4.85;2.13;;;;;21.40;94429.00;;;;7395122;19;20160;-86
2022/05/16 13:33:36;;;;;;;5.32;2.22;;;;;21.70;94412.00;;;;7391636;19;20178;-84
2022/05/16 13:36:21;;;;;;;6.85;2.40;;;;;22.00;94423.00;;;;7389841;19;20172;-88
2022/05/16 13:39:11;;;;;;;3.97;2.33;;;;;21.30;94419.00;;;;7391247;19;20168;-83